Time;durP1;ratioP1;P1;durP2;ratioP2;P2;SDS_P1;SDS_P2;PMS_P1;PMS_P2;Temp;Humidity;BMP_temperature;BMP_pressure;BME280_temperature;BME280_humidity;BME280_pressure;Samples;Min_cycle;Max_cycle;Signal;HPM_P1;HPM_P2
2023/10/05 00:01:05;;;;;;;33.72;31.25;;;15.50;99.90;;;;;;5011741;28;20026;-70
2023/10/05 00:03:33;;;;;;;34.47;31.73;;;15.40;99.90;;;;;;5012872;28;20483;-71
2023/10/05 00:06:13;;;;;;;39.33;36.65;;;15.40;99.90;;;;;;5012485;28;20248;-71
2023/10/05 00:08:43;;;;;;;35.90;33.17;;;15.40;99.90;;;;;;5012883;28;20046;-71
2023/10/05 00:11:28;;;;;;;34.13;31.27;;;15.40;99.90;;;;;;5012180;28;20053;-71
2023/10/05 00:14:07;;;;;;;34.55;31.67;;;15.40;99.90;;;;;;5011920;28;20034;-71
2023/10/05 00:16:36;;;;;;;31.63;29.40;;;15.30;99.90;;;;;;5011741;28;20521;-71
2023/10/05 00:19:10;;;;;;;35.55;33.17;;;15.30;99.90;;;;;;5012225;28;20083;-70
2023/10/05 00:21:37;;;;;;;33.85;31.08;;;15.30;99.90;;;;;;5011825;28;20029;-71
2023/10/05 00:24:06;;;;;;;30.85;28.35;;;15.10;99.90;;;;;;5012916;28;20479;-71
2023/10/05 00:26:34;;;;;;;31.35;29.05;;;15.00;99.90;;;;;;5005865;28;20038;-71
2023/10/05 00:31:30;;;;;;;23.60;21.60;;;15.00;99.90;;;;;;5005379;28;20053;-70
2023/10/05 00:33:56;;;;;;;25.20;22.90;;;15.00;99.90;;;;;;5012610;28;20375;-71
2023/10/05 00:36:32;;;;;;;32.25;29.90;;;15.10;99.90;;;;;;5011112;28;20498;-70
2023/10/05 00:39:01;;;;;;;33.08;31.05;;;15.10;99.90;;;;;;5012370;28;20040;-70
2023/10/05 00:41:28;;;;;;;44.50;41.65;;;15.10;99.90;;;;;;5012097;28;20053;-70
2023/10/05 00:43:55;;;;;;;51.47;48.25;;;15.00;99.90;;;;;;5012369;28;20029;-70
2023/10/05 00:46:22;;;;;;;51.97;48.42;;;15.00;99.90;;;;;;5011022;28;20022;-70
2023/10/05 00:49:14;;;;;;;37.53;35.17;;;15.00;99.90;;;;;;5011312;28;20049;-71
2023/10/05 00:51:42;;;;;;;47.05;44.08;;;15.00;99.90;;;;;;5010265;28;20042;-71
2023/10/05 00:54:16;;;;;;;48.30;45.15;;;15.00;99.90;;;;;;5011052;28;20030;-70
2023/10/05 00:56:42;;;;;;;24.98;23.08;;;15.00;99.90;;;;;;5010299;28;20045;-70
2023/10/05 00:59:11;;;;;;;24.63;22.65;;;15.10;99.90;;;;;;5014089;28;20053;-71
2023/10/05 01:07:18;;;;;;;24.55;22.52;;;15.00;99.90;;;;;;5018469;28;20033;-70
2023/10/05 01:12:35;;;;;;;24.27;22.48;;;14.90;99.90;;;;;;5014946;28;20029;-70
2023/10/05 01:15:06;;;;;;;22.95;21.05;;;14.90;99.90;;;;;;5015639;28;20058;-70
2023/10/05 01:17:33;;;;;;;22.13;20.30;;;14.90;99.90;;;;;;4994565;28;21302;-70
2023/10/05 01:20:08;;;;;;;22.20;20.08;;;14.90;99.90;;;;;;4995782;28;20062;-70
2023/10/05 01:22:44;;;;;;;21.85;20.13;;;14.80;99.90;;;;;;4995735;28;20038;-70
2023/10/05 01:25:14;;;;;;;24.65;22.42;;;14.80;99.90;;;;;;4995858;28;20050;-71
2023/10/05 01:27:47;;;;;;;20.80;19.30;;;14.70;99.90;;;;;;4994686;28;20046;-70
2023/10/05 01:30:14;;;;;;;24.92;22.73;;;14.60;99.90;;;;;;4995048;28;20031;-71
2023/10/05 01:32:43;;;;;;;38.25;35.78;;;14.60;99.90;;;;;;4996039;28;20046;-71
2023/10/05 01:35:12;;;;;;;39.92;37.63;;;14.50;99.90;;;;;;4994962;28;20395;-71
2023/10/05 01:37:43;;;;;;;42.13;39.22;;;14.40;99.90;;;;;;4988259;28;20050;-71
2023/10/05 01:42:48;;;;;;;20.95;19.25;;;14.40;99.90;;;;;;4980713;28;20041;-71
2023/10/05 01:45:25;;;;;;;26.58;24.70;;;14.40;99.90;;;;;;4994180;28;20034;-70
2023/10/05 01:47:51;;;;;;;30.85;28.60;;;14.40;99.90;;;;;;4994926;28;20106;-70
2023/10/05 01:50:22;;;;;;;19.70;18.23;;;14.40;99.90;;;;;;4995416;28;20510;-71
2023/10/05 01:53:39;;;;;;;22.98;21.20;;;14.30;99.90;;;;;;4996033;28;20042;-70
2023/10/05 01:55:39;;;;;;;19.33;17.45;;;14.20;99.90;;;;;;4989716;28;20057;-70
2023/10/05 01:58:06;;;;;;;21.55;20.10;;;14.30;99.90;;;;;;4995352;28;20043;-71
2023/10/05 02:00:37;;;;;;;18.13;16.67;;;14.20;99.90;;;;;;4994733;28;20510;-70
2023/10/05 02:03:11;;;;;;;20.85;19.23;;;14.20;99.90;;;;;;4993696;28;20045;-71
2023/10/05 02:05:38;;;;;;;21.42;19.67;;;14.10;99.90;;;;;;4994722;28;20042;-71
2023/10/05 02:08:05;;;;;;;18.95;17.63;;;14.10;99.90;;;;;;4994843;28;20030;-71
2023/10/05 02:10:40;;;;;;;18.55;17.17;;;14.10;99.90;;;;;;4994131;28;20434;-71
2023/10/05 02:13:11;;;;;;;18.17;16.67;;;14.00;99.90;;;;;;4979085;28;20038;-71
2023/10/05 02:15:39;;;;;;;18.30;16.70;;;14.00;99.90;;;;;;4998220;28;20061;-70
2023/10/05 02:18:24;;;;;;;18.88;17.58;;;14.00;99.90;;;;;;5012828;28;20045;-71
2023/10/05 02:23:44;;;;;;;18.73;17.02;;;14.00;99.90;;;;;;4992485;28;20166;-70
2023/10/05 02:26:33;;;;;;;18.92;17.42;;;14.00;99.90;;;;;;4991873;28;20061;-70
2023/10/05 02:28:59;;;;;;;18.65;17.15;;;13.90;99.90;;;;;;4978373;28;20041;-70
2023/10/05 02:31:29;;;;;;;20.60;18.75;;;13.90;99.90;;;;;;4991532;28;20103;-70
2023/10/05 02:33:56;;;;;;;20.17;18.67;;;13.80;99.90;;;;;;4976366;28;20053;-71
2023/10/05 02:36:26;;;;;;;20.20;18.10;;;13.80;99.90;;;;;;4991345;28;20081;-70
2023/10/05 02:38:56;;;;;;;20.33;18.70;;;13.80;99.90;;;;;;4991200;28;20054;-70
2023/10/05 02:41:38;;;;;;;20.70;19.20;;;13.80;99.90;;;;;;4991030;28;20154;-71
2023/10/05 02:44:16;;;;;;;15.88;14.48;;;13.80;99.90;;;;;;4991268;28;20435;-71
2023/10/05 02:46:47;;;;;;;15.82;14.50;;;13.80;99.90;;;;;;4976949;28;20042;-70
2023/10/05 02:49:16;;;;;;;20.50;18.90;;;13.80;99.90;;;;;;4972339;28;20146;-71
2023/10/05 02:51:46;;;;;;;20.67;18.98;;;13.70;99.90;;;;;;4971925;28;20536;-70
2023/10/05 02:54:12;;;;;;;21.17;19.73;;;13.70;99.90;;;;;;4971958;28;20035;-70
2023/10/05 02:56:42;;;;;;;18.00;16.48;;;13.60;99.90;;;;;;4972007;28;20212;-70
2023/10/05 02:59:08;;;;;;;18.50;16.90;;;13.60;99.90;;;;;;4972445;28;20437;-70
2023/10/05 03:01:37;;;;;;;18.38;16.95;;;13.60;99.90;;;;;;5003080;28;20514;-70
2023/10/05 03:04:44;;;;;;;20.25;18.75;;;13.60;99.90;;;;;;5011945;28;20368;-70
2023/10/05 03:06:52;;;;;;;19.42;17.83;;;13.60;99.90;;;;;;5012757;28;20038;-69
2023/10/05 03:09:21;;;;;;;23.02;21.30;;;13.50;99.90;;;;;;5013657;28;20485;-70
2023/10/05 03:11:48;;;;;;;21.35;19.88;;;13.50;99.90;;;;;;5013499;28;20038;-71
2023/10/05 03:14:16;;;;;;;21.08;19.60;;;13.50;99.90;;;;;;5013356;28;20045;-71
2023/10/05 03:16:48;;;;;;;23.58;21.92;;;13.60;99.90;;;;;;5011845;28;20403;-70
2023/10/05 03:19:22;;;;;;;23.55;22.08;;;13.50;99.90;;;;;;4993616;28;20050;-70
2023/10/05 03:21:50;;;;;;;26.20;24.33;;;13.40;99.90;;;;;;5006003;28;20472;-71
2023/10/05 03:24:24;;;;;;;22.02;20.42;;;13.40;99.90;;;;;;5013388;28;20033;-71
2023/10/05 03:26:52;;;;;;;25.48;23.75;;;13.30;99.90;;;;;;5012988;28;20383;-70
2023/10/05 03:29:18;;;;;;;24.70;22.80;;;13.30;99.90;;;;;;5013063;28;20042;-70
2023/10/05 03:31:53;;;;;;;25.70;23.83;;;13.30;99.90;;;;;;5012615;28;20491;-71
2023/10/05 03:34:20;;;;;;;25.25;23.52;;;13.30;99.90;;;;;;5013353;28;20037;-70
2023/10/05 03:36:47;;;;;;;25.10;23.20;;;13.30;99.90;;;;;;5012299;28;20026;-70
2023/10/05 03:39:14;;;;;;;23.90;22.13;;;13.30;99.90;;;;;;5012988;28;20506;-70
2023/10/05 03:41:40;;;;;;;21.95;20.55;;;13.20;99.90;;;;;;5012792;28;20034;-70
2023/10/05 03:44:07;;;;;;;19.52;18.23;;;13.10;99.90;;;;;;5012436;28;20034;-70
2023/10/05 03:46:35;;;;;;;19.77;18.38;;;13.20;99.90;;;;;;5012096;28;20044;-70
2023/10/05 03:49:06;;;;;;;19.75;18.38;;;13.20;99.90;;;;;;5013205;28;20053;-70
2023/10/05 03:51:32;;;;;;;20.27;18.90;;;13.10;99.90;;;;;;5012819;28;20065;-70
2023/10/05 03:53:59;;;;;;;18.08;16.88;;;13.10;99.90;;;;;;5012545;28;20038;-71
2023/10/05 03:56:27;;;;;;;19.35;17.77;;;13.20;99.90;;;;;;5012278;28;20486;-71
2023/10/05 03:58:54;;;;;;;22.98;21.42;;;13.10;99.90;;;;;;5012468;28;20053;-71
2023/10/05 04:01:21;;;;;;;20.60;19.30;;;13.10;99.90;;;;;;5012332;28;20391;-71
2023/10/05 04:03:49;;;;;;;21.23;19.67;;;13.10;99.90;;;;;;5012764;28;20053;-71
2023/10/05 04:06:20;;;;;;;21.73;20.23;;;13.10;99.90;;;;;;5012303;28;20046;-71
2023/10/05 04:08:57;;;;;;;17.58;16.30;;;13.10;99.90;;;;;;5013126;28;20501;-70
2023/10/05 04:11:26;;;;;;;16.02;14.63;;;13.10;99.90;;;;;;5012154;28;20029;-71
2023/10/05 04:13:55;;;;;;;16.63;15.43;;;13.10;99.90;;;;;;5012389;28;20057;-71
2023/10/05 04:16:26;;;;;;;27.33;25.60;;;13.10;99.90;;;;;;5011205;28;20503;-70
2023/10/05 04:18:53;;;;;;;20.08;18.75;;;13.00;99.90;;;;;;5012422;28;20483;-70
2023/10/05 04:21:22;;;;;;;25.38;23.77;;;13.00;99.90;;;;;;5011027;28;20030;-71
2023/10/05 04:23:56;;;;;;;25.30;23.45;;;13.00;99.90;;;;;;5012136;28;20026;-71
2023/10/05 04:26:22;;;;;;;20.10;18.60;;;12.90;99.90;;;;;;5012198;28;20057;-70
2023/10/05 04:28:52;;;;;;;20.10;18.70;;;12.90;99.90;;;;;;5012160;28;20041;-70
2023/10/05 04:31:22;;;;;;;19.87;17.97;;;12.90;99.90;;;;;;5012453;28;20031;-71
2023/10/05 04:33:49;;;;;;;21.13;19.48;;;12.80;99.90;;;;;;5016469;28;20300;-70
2023/10/05 04:36:17;;;;;;;24.15;21.92;;;12.80;99.90;;;;;;5015870;28;20041;-70
2023/10/05 04:38:46;;;;;;;22.30;20.90;;;12.80;99.90;;;;;;5016504;28;20054;-71
2023/10/05 04:41:12;;;;;;;25.67;24.00;;;12.80;99.90;;;;;;5016586;28;20390;-70
2023/10/05 04:43:43;;;;;;;21.85;20.15;;;12.80;99.90;;;;;;5016036;28;20356;-70
2023/10/05 04:46:10;;;;;;;20.27;18.67;;;12.80;99.90;;;;;;5015426;28;20060;-70
2023/10/05 04:48:39;;;;;;;22.80;21.13;;;12.80;99.90;;;;;;5016268;28;20045;-71
2023/10/05 04:51:05;;;;;;;23.45;21.17;;;12.80;99.90;;;;;;5016158;28;20383;-71
2023/10/05 04:53:32;;;;;;;18.17;16.95;;;12.80;99.90;;;;;;5014846;28;20046;-71
2023/10/05 04:56:28;;;;;;;25.88;24.05;;;12.80;99.90;;;;;;5012204;28;20053;-71
2023/10/05 04:58:53;;;;;;;20.48;19.08;;;12.80;99.90;;;;;;5013577;28;20038;-70
2023/10/05 05:01:29;;;;;;;18.20;16.63;;;12.80;99.90;;;;;;5014835;28;20033;-70
2023/10/05 05:03:56;;;;;;;24.92;23.30;;;12.80;99.90;;;;;;5014888;28;20042;-70
2023/10/05 05:06:32;;;;;;;24.63;22.90;;;12.80;99.90;;;;;;5015149;28;20030;-70
2023/10/05 05:08:58;;;;;;;21.30;19.58;;;12.70;99.90;;;;;;5015790;28;20048;-70
2023/10/05 05:11:25;;;;;;;19.65;18.05;;;12.70;99.90;;;;;;5014197;28;20433;-71
2023/10/05 05:13:51;;;;;;;18.90;17.63;;;12.70;99.90;;;;;;5015178;28;20033;-70
2023/10/05 05:16:18;;;;;;;19.15;17.85;;;12.70;99.90;;;;;;5014571;28;20052;-70
2023/10/05 05:18:45;;;;;;;25.02;23.40;;;12.70;99.90;;;;;;5015408;28;20026;-70
2023/10/05 05:21:11;;;;;;;26.27;24.45;;;12.60;99.90;;;;;;5015088;28;20056;-71
2023/10/05 05:23:39;;;;;;;18.15;16.90;;;12.60;99.90;;;;;;5014636;28;20406;-71
2023/10/05 05:26:09;;;;;;;18.27;16.88;;;12.60;99.90;;;;;;5013009;28;20049;-71
2023/10/05 05:28:37;;;;;;;23.75;22.08;;;12.60;99.90;;;;;;5015594;28;20057;-70
2023/10/05 05:31:16;;;;;;;17.98;16.70;;;12.50;99.90;;;;;;5014737;28;20038;-70
2023/10/05 05:33:44;;;;;;;20.10;18.67;;;12.40;99.90;;;;;;5014904;28;20054;-70
2023/10/05 05:36:13;;;;;;;22.08;20.58;;;12.40;99.90;;;;;;5014886;28;20049;-70
2023/10/05 05:38:40;;;;;;;18.88;17.60;;;12.40;99.90;;;;;;5015612;28;20049;-71
2023/10/05 05:41:11;;;;;;;16.15;15.10;;;12.40;99.90;;;;;;5014433;28;20049;-70
2023/10/05 05:43:39;;;;;;;22.58;21.00;;;12.40;99.90;;;;;;5014100;28;20498;-71
2023/10/05 05:46:11;;;;;;;19.05;17.60;;;12.40;99.90;;;;;;5013784;28;20038;-70
2023/10/05 05:48:38;;;;;;;17.88;16.60;;;12.50;99.90;;;;;;5014908;28;20048;-70
2023/10/05 05:51:11;;;;;;;19.38;18.08;;;12.30;99.90;;;;;;5014932;28;20046;-70
2023/10/05 05:53:37;;;;;;;17.38;16.27;;;12.30;99.90;;;;;;5015103;28;20042;-70
2023/10/05 05:56:04;;;;;;;16.90;15.75;;;12.20;99.90;;;;;;5014033;28;20057;-70
2023/10/05 05:58:30;;;;;;;16.75;15.63;;;12.30;99.90;;;;;;5014716;28;20033;-70
2023/10/05 06:00:57;;;;;;;17.52;16.23;;;12.30;99.90;;;;;;5012184;28;20053;-70
2023/10/05 06:03:27;;;;;;;17.60;16.10;;;12.30;99.90;;;;;;5014669;28;20029;-71
2023/10/05 06:05:54;;;;;;;19.85;18.55;;;12.20;99.90;;;;;;5014198;28;20053;-70
2023/10/05 06:08:20;;;;;;;22.20;20.92;;;12.30;99.90;;;;;;5014794;28;20034;-70
2023/10/05 06:10:47;;;;;;;26.38;24.77;;;12.10;99.90;;;;;;5012961;28;20022;-71
2023/10/05 06:13:13;;;;;;;25.17;23.33;;;12.00;99.90;;;;;;5013479;28;20049;-71
2023/10/05 06:15:39;;;;;;;21.42;19.95;;;12.00;99.90;;;;;;5012774;28;20048;-69
2023/10/05 06:18:05;;;;;;;16.98;15.90;;;12.00;99.90;;;;;;5011276;28;20038;-70
2023/10/05 06:20:32;;;;;;;18.33;16.73;;;12.10;99.90;;;;;;5014208;28;20045;-71
2023/10/05 06:22:58;;;;;;;16.83;15.60;;;12.10;99.90;;;;;;5014276;28;20038;-71
2023/10/05 06:25:25;;;;;;;18.80;17.70;;;12.10;99.90;;;;;;5013290;28;20514;-71
2023/10/05 06:27:51;;;;;;;17.13;15.80;;;12.10;99.90;;;;;;5005442;28;20463;-70
2023/10/05 06:30:20;;;;;;;15.52;14.43;;;12.20;99.90;;;;;;5009899;28;20041;-70
2023/10/05 06:32:47;;;;;;;16.88;15.77;;;12.20;99.90;;;;;;4995125;28;20049;-71
2023/10/05 06:35:13;;;;;;;17.90;16.65;;;12.30;99.90;;;;;;5002080;28;20038;-70
2023/10/05 06:37:42;;;;;;;18.13;16.67;;;12.20;99.90;;;;;;5013022;28;20030;-70
2023/10/05 06:40:21;;;;;;;17.83;16.58;;;12.20;99.90;;;;;;5003913;28;20045;-71
2023/10/05 06:42:51;;;;;;;17.27;15.95;;;12.20;99.90;;;;;;5003827;28;20056;-72
2023/10/05 06:45:19;;;;;;;18.25;16.85;;;12.20;99.90;;;;;;5011442;28;20042;-72
2023/10/05 06:47:45;;;;;;;17.25;16.13;;;12.10;99.90;;;;;;5006071;28;20025;-72
2023/10/05 06:50:12;;;;;;;18.80;17.65;;;12.10;99.90;;;;;;5009476;28;20049;-71
2023/10/05 06:52:42;;;;;;;19.58;18.25;;;12.10;99.90;;;;;;5013113;28;20034;-72
2023/10/05 06:55:12;;;;;;;21.90;20.35;;;12.00;99.90;;;;;;5011716;28;20034;-72
2023/10/05 06:57:39;;;;;;;21.20;19.98;;;12.10;99.90;;;;;;5013627;28;20455;-72
2023/10/05 07:00:16;;;;;;;19.70;18.27;;;12.20;99.90;;;;;;5011563;28;20030;-72
2023/10/05 07:02:46;;;;;;;19.40;18.05;;;12.20;99.90;;;;;;5009962;28;20057;-72
2023/10/05 07:05:12;;;;;;;22.20;20.48;;;12.30;99.90;;;;;;5009555;28;20042;-72
2023/10/05 07:07:38;;;;;;;23.52;21.65;;;12.30;99.90;;;;;;5013333;28;20029;-72
2023/10/05 07:10:06;;;;;;;24.48;22.92;;;12.40;99.90;;;;;;5012854;28;20030;-72
2023/10/05 07:12:35;;;;;;;22.33;20.02;;;12.50;99.90;;;;;;5012873;28;20029;-72
2023/10/05 07:15:01;;;;;;;21.70;20.15;;;12.70;99.90;;;;;;5013201;28;20042;-72
2023/10/05 07:17:29;;;;;;;19.40;17.90;;;12.70;99.90;;;;;;5012332;28;20033;-72
2023/10/05 07:19:55;;;;;;;19.40;17.90;;;12.70;99.90;;;;;;5012727;28;20050;-72
2023/10/05 07:22:22;;;;;;;26.15;24.10;;;12.70;99.90;;;;;;5012581;28;20021;-71
2023/10/05 07:24:48;;;;;;;23.50;21.92;;;13.20;99.90;;;;;;5013200;28;20475;-72
2023/10/05 07:27:15;;;;;;;29.63;27.27;;;13.50;99.90;;;;;;5012791;28;20022;-71
2023/10/05 07:29:45;;;;;;;28.45;26.27;;;13.60;99.90;;;;;;5013569;28;20042;-71
2023/10/05 07:32:14;;;;;;;31.77;28.95;;;13.60;99.90;;;;;;5012205;28;20546;-71
2023/10/05 07:34:41;;;;;;;30.73;28.27;;;13.80;99.90;;;;;;5012624;28;20034;-72
2023/10/05 07:37:10;;;;;;;28.42;26.00;;;14.20;99.90;;;;;;5013111;28;20038;-72
2023/10/05 07:39:41;;;;;;;27.35;24.95;;;14.50;99.90;;;;;;5013548;28;20057;-72
2023/10/05 07:42:10;;;;;;;34.15;31.45;;;14.90;99.90;;;;;;5029482;28;20045;-72
2023/10/05 07:44:39;;;;;;;29.65;27.65;;;15.30;99.90;;;;;;5012000;28;20041;-73
2023/10/05 07:47:06;;;;;;;57.17;53.67;;;15.60;99.90;;;;;;5012114;28;20033;-72
2023/10/05 07:49:35;;;;;;;109.32;103.22;;;15.40;99.90;;;;;;5012511;28;20042;-71
2023/10/05 07:52:10;;;;;;;97.20;91.68;;;15.30;99.90;;;;;;5012798;28;20038;-72
2023/10/05 07:54:38;;;;;;;100.47;94.78;;;15.40;99.90;;;;;;4995601;28;20045;-72
2023/10/05 07:57:07;;;;;;;119.57;113.05;;;15.30;99.90;;;;;;4993464;28;20057;-72
2023/10/05 07:59:34;;;;;;;58.10;54.65;;;15.30;99.90;;;;;;5012353;28;20069;-72
2023/10/05 08:02:01;;;;;;;125.20;118.40;;;15.50;99.90;;;;;;4999727;28;20042;-70
2023/10/05 08:04:30;;;;;;;132.65;125.53;;;15.60;99.90;;;;;;5005885;28;20041;-72
2023/10/05 08:06:56;;;;;;;94.18;88.78;;;15.70;99.90;;;;;;5006167;28;20042;-72
2023/10/05 08:09:22;;;;;;;75.30;71.00;;;15.60;99.90;;;;;;5012077;28;20541;-72
2023/10/05 08:11:50;;;;;;;77.53;73.10;;;15.70;99.90;;;;;;5011305;28;20034;-72
2023/10/05 08:14:17;;;;;;;56.08;52.10;;;15.60;99.90;;;;;;4993365;28;20039;-71
2023/10/05 08:16:50;;;;;;;41.03;38.38;;;15.40;99.90;;;;;;5006873;28;20053;-72
2023/10/05 08:19:19;;;;;;;29.45;27.13;;;15.20;99.90;;;;;;5011797;28;20045;-72
2023/10/05 08:21:45;;;;;;;30.10;27.92;;;15.10;99.90;;;;;;5012529;28;20402;-72
2023/10/05 08:24:14;;;;;;;29.75;27.63;;;15.10;99.90;;;;;;5002671;28;20054;-71
2023/10/05 08:26:41;;;;;;;23.25;21.10;;;15.00;99.90;;;;;;4993228;28;20046;-71
2023/10/05 08:29:08;;;;;;;31.05;28.67;;;15.00;99.90;;;;;;5009618;28;20053;-72
2023/10/05 08:31:35;;;;;;;26.48;24.63;;;14.90;99.90;;;;;;5011995;28;20042;-72
2023/10/05 08:34:03;;;;;;;34.53;32.00;;;14.90;99.90;;;;;;4996771;28;20022;-71
2023/10/05 08:36:30;;;;;;;30.75;28.13;;;14.90;99.90;;;;;;5003042;28;20053;-71
2023/10/05 08:38:56;;;;;;;38.75;36.22;;;15.10;99.90;;;;;;5012230;28;20021;-71
2023/10/05 08:41:35;;;;;;;39.78;37.25;;;15.20;99.90;;;;;;5012019;28;20491;-71
2023/10/05 08:44:11;;;;;;;138.02;130.48;;;15.30;99.90;;;;;;5010670;28;20038;-71
2023/10/05 08:46:41;;;;;;;41.65;38.65;;;15.60;99.90;;;;;;5009322;28;20033;-71
2023/10/05 08:49:10;;;;;;;41.22;38.13;;;15.70;99.90;;;;;;5007947;28;20047;-70
2023/10/05 08:51:39;;;;;;;41.38;38.50;;;15.80;99.90;;;;;;5000054;28;20030;-71
2023/10/05 08:54:09;;;;;;;32.33;29.63;;;15.60;99.90;;;;;;4999476;28;20043;-72
2023/10/05 08:56:40;;;;;;;31.67;29.63;;;15.40;99.90;;;;;;5002889;28;20042;-72
2023/10/05 08:59:13;;;;;;;31.95;29.48;;;15.50;99.90;;;;;;5007862;28;20042;-72
2023/10/05 09:01:42;;;;;;;33.78;30.52;;;15.50;99.90;;;;;;5010349;28;20407;-72
2023/10/05 09:06:59;;;;;;;31.70;29.33;;;15.70;99.90;;;;;;5013459;28;20029;-72
2023/10/05 09:10:17;;;;;;;26.92;24.85;;;15.80;99.90;;;;;;5011571;28;20041;-72
2023/10/05 09:12:18;;;;;;;25.83;23.88;;;16.10;99.90;;;;;;4988441;28;20053;-72
2023/10/05 09:14:46;;;;;;;45.90;42.75;;;16.30;99.90;;;;;;5009399;28;20046;-72
2023/10/05 09:17:15;;;;;;;39.75;36.70;;;16.10;99.90;;;;;;5007842;28;20046;-72
2023/10/05 09:19:44;;;;;;;72.80;67.35;;;16.20;99.90;;;;;;4999414;28;20471;-71
2023/10/05 09:22:11;;;;;;;122.30;114.55;;;16.30;99.90;;;;;;5013673;28;20037;-70
2023/10/05 09:24:37;;;;;;;120.13;113.35;;;16.30;99.90;;;;;;5012044;28;20049;-72
2023/10/05 09:27:12;;;;;;;108.15;101.57;;;16.50;99.90;;;;;;5014823;28;20045;-72
2023/10/05 09:29:39;;;;;;;82.28;77.45;;;16.70;99.90;;;;;;5015238;28;20054;-71
2023/10/05 09:32:10;;;;;;;97.20;91.03;;;16.80;99.90;;;;;;5013012;28;20398;-72
2023/10/05 09:34:41;;;;;;;76.93;72.18;;;16.80;99.90;;;;;;5015100;28;20045;-72
2023/10/05 09:37:11;;;;;;;81.13;76.40;;;16.90;99.90;;;;;;5007912;28;20049;-72
2023/10/05 09:39:46;;;;;;;79.03;74.35;;;16.90;99.90;;;;;;5014671;28;20041;-71
2023/10/05 09:42:25;;;;;;;57.00;53.72;;;16.90;99.90;;;;;;5015306;28;20050;-71
2023/10/05 09:44:52;;;;;;;54.08;50.65;;;17.00;99.90;;;;;;5019093;28;20034;-71
2023/10/05 09:47:26;;;;;;;57.50;53.65;;;17.00;99.90;;;;;;5017494;28;20034;-72
2023/10/05 09:49:57;;;;;;;60.25;56.63;;;17.20;99.90;;;;;;5014808;28;20592;-72
2023/10/05 09:52:24;;;;;;;61.25;57.53;;;17.40;99.90;;;;;;5014084;28;20033;-72
2023/10/05 09:54:50;;;;;;;87.53;82.97;;;17.40;99.90;;;;;;5027693;28;20045;-72
2023/10/05 09:57:17;;;;;;;81.40;77.13;;;17.40;99.90;;;;;;5021713;28;20110;-72
2023/10/05 09:59:45;;;;;;;82.65;78.22;;;17.60;99.90;;;;;;5014857;28;20046;-72
2023/10/05 10:02:14;;;;;;;79.60;75.28;;;17.70;99.90;;;;;;5013614;28;20049;-72
2023/10/05 10:04:40;;;;;;;103.10;97.70;;;17.90;99.90;;;;;;5014769;28;20049;-72
2023/10/05 10:07:15;;;;;;;88.15;83.18;;;17.90;99.90;;;;;;5014336;28;20029;-72
2023/10/05 10:09:46;;;;;;;105.30;99.50;;;17.90;99.90;;;;;;5013299;28;20486;-71
2023/10/05 10:12:28;;;;;;;101.10;95.80;;;18.00;99.90;;;;;;5012999;28;20041;-71
2023/10/05 10:14:58;;;;;;;108.80;102.85;;;18.10;99.90;;;;;;5014580;28;20057;-71
2023/10/05 10:17:31;;;;;;;119.75;112.88;;;18.10;99.90;;;;;;5013675;28;20042;-72
2023/10/05 10:20:28;;;;;;;89.90;84.85;;;18.20;99.90;;;;;;5014386;28;20041;-71
2023/10/05 10:22:55;;;;;;;68.75;64.88;;;18.20;99.90;;;;;;5012889;28;20058;-71
2023/10/05 10:25:40;;;;;;;74.82;70.15;;;18.30;99.90;;;;;;5014312;28;20042;-71
2023/10/05 10:31:30;;;;;;;81.05;76.63;;;18.10;99.90;;;;;;4994093;28;20046;-71
2023/10/05 10:34:05;;;;;;;71.68;67.45;;;18.10;99.90;;;;;;4992289;28;20034;-72
2023/10/05 10:36:51;;;;;;;120.03;113.57;;;18.20;99.90;;;;;;5007347;28;20038;-72
2023/10/05 10:39:23;;;;;;;121.53;115.18;;;18.20;99.90;;;;;;4988166;28;20047;-72
2023/10/05 10:41:53;;;;;;;100.05;94.90;;;18.30;99.90;;;;;;4981006;28;20057;-72
2023/10/05 10:44:24;;;;;;;126.22;119.75;;;18.40;99.90;;;;;;4990519;28;20047;-72
2023/10/05 10:46:54;;;;;;;102.22;97.07;;;18.40;99.90;;;;;;4974601;28;20170;-72
2023/10/05 10:49:21;;;;;;;118.18;111.88;;;18.50;99.90;;;;;;5008824;28;20056;-71
2023/10/05 10:51:47;;;;;;;121.55;115.25;;;18.40;99.90;;;;;;4997668;28;20057;-72
2023/10/05 10:54:14;;;;;;;135.13;128.27;;;18.50;99.90;;;;;;4991338;28;20038;-71
2023/10/05 10:56:44;;;;;;;152.05;144.25;;;18.50;99.90;;;;;;4959276;28;20050;-72
2023/10/05 10:59:13;;;;;;;143.07;135.48;;;18.50;99.90;;;;;;4974439;28;20526;-72
2023/10/05 11:02:10;;;;;;;139.85;132.82;;;18.50;99.90;;;;;;4993893;28;20046;-72
2023/10/05 11:04:33;;;;;;;162.45;153.57;;;18.60;99.90;;;;;;4993885;28;20026;-72
2023/10/05 11:07:05;;;;;;;151.40;143.52;;;18.60;99.90;;;;;;5008045;28;20030;-72
2023/10/05 11:09:52;;;;;;;151.63;143.88;;;18.60;99.90;;;;;;5011296;28;20030;-71
2023/10/05 11:12:21;;;;;;;161.90;153.63;;;18.60;99.90;;;;;;5013007;28;20056;-71
2023/10/05 11:14:47;;;;;;;170.70;161.90;;;18.70;99.90;;;;;;5032795;28;20064;-72
2023/10/05 11:17:30;;;;;;;198.73;188.43;;;18.80;99.90;;;;;;5014216;28;20360;-72
2023/10/05 11:20:15;;;;;;;192.48;182.73;;;18.80;99.90;;;;;;5012746;28;20049;-71
2023/10/05 11:22:44;;;;;;;229.57;217.98;;;18.80;99.90;;;;;;5012977;28;20065;-71
2023/10/05 11:25:16;;;;;;;193.05;183.30;;;18.90;99.90;;;;;;5012674;28;20030;-72
2023/10/05 11:27:44;;;;;;;202.00;191.82;;;18.80;99.90;;;;;;5008372;28;20046;-71
2023/10/05 11:30:18;;;;;;;219.60;208.43;;;18.80;99.90;;;;;;5011746;28;20049;-70
2023/10/05 11:32:54;;;;;;;199.77;189.57;;;18.90;99.90;;;;;;4993480;28;20046;-72
2023/10/05 11:35:40;;;;;;;223.55;212.35;;;18.90;99.90;;;;;;4999399;28;20038;-72
2023/10/05 11:38:06;;;;;;;203.40;193.13;;;18.90;99.90;;;;;;5011520;28;20046;-72
2023/10/05 11:40:35;;;;;;;235.18;223.68;;;19.00;99.90;;;;;;5012095;28;20467;-72
2023/10/05 11:43:06;;;;;;;208.02;197.63;;;19.10;99.90;;;;;;5011287;28;20076;-72
2023/10/05 11:45:33;;;;;;;230.75;219.35;;;19.00;99.90;;;;;;5011479;28;21982;-71
2023/10/05 11:48:11;;;;;;;223.13;211.93;;;19.10;99.90;;;;;;5012661;28;20491;-72
2023/10/05 11:50:37;;;;;;;215.85;205.02;;;19.10;99.90;;;;;;5011834;28;20041;-72
2023/10/05 11:53:11;;;;;;;149.77;142.07;;;19.20;99.90;;;;;;5015388;28;20049;-72
2023/10/05 11:55:39;;;;;;;178.75;169.52;;;19.30;99.90;;;;;;5028398;28;20062;-72
2023/10/05 11:58:08;;;;;;;189.00;179.35;;;19.20;99.90;;;;;;5010545;28;20050;-72
2023/10/05 12:00:35;;;;;;;177.85;168.88;;;19.20;99.90;;;;;;5012814;28;20394;-72
2023/10/05 12:03:02;;;;;;;193.20;183.57;;;19.30;99.90;;;;;;5012341;28;20403;-72
2023/10/05 12:05:30;;;;;;;208.23;197.48;;;19.30;99.90;;;;;;5011745;28;20038;-72
2023/10/05 12:07:59;;;;;;;176.55;167.45;;;19.40;99.90;;;;;;5012142;28;20073;-72
2023/10/05 12:10:26;;;;;;;191.13;180.93;;;19.40;99.90;;;;;;5011803;28;20060;-72
2023/10/05 12:12:52;;;;;;;170.50;161.70;;;19.50;99.90;;;;;;5012233;28;20026;-71
2023/10/05 12:15:22;;;;;;;153.68;145.70;;;19.70;99.90;;;;;;5010597;28;20084;-71
2023/10/05 12:17:49;;;;;;;142.32;134.95;;;19.80;99.90;;;;;;5012245;28;20368;-72
2023/10/05 12:20:15;;;;;;;129.18;122.38;;;19.80;99.90;;;;;;5012011;28;20038;-72
2023/10/05 12:22:41;;;;;;;111.63;105.88;;;19.90;99.90;;;;;;5012399;28;20042;-72
2023/10/05 12:25:08;;;;;;;122.97;116.38;;;20.00;99.90;;;;;;5012665;28;20026;-72
2023/10/05 12:27:35;;;;;;;115.82;109.88;;;20.00;99.90;;;;;;5009716;28;20391;-71
2023/10/05 12:30:11;;;;;;;130.02;123.10;;;20.10;99.90;;;;;;5011865;28;20018;-72
2023/10/05 12:32:40;;;;;;;129.10;122.47;;;20.10;99.90;;;;;;5009957;28;20495;-72
2023/10/05 12:35:13;;;;;;;132.63;125.07;;;20.40;99.90;;;;;;5011928;28;20036;-72
2023/10/05 12:37:44;;;;;;;129.05;122.18;;;20.30;99.90;;;;;;5011854;28;20050;-72
2023/10/05 12:40:26;;;;;;;169.77;161.18;;;20.50;99.90;;;;;;5011113;28;20038;-72
2023/10/05 12:42:52;;;;;;;193.75;183.88;;;20.50;99.90;;;;;;4998300;28;20491;-71
2023/10/05 12:45:21;;;;;;;231.52;219.93;;;20.60;99.90;;;;;;5011211;28;20037;-72
2023/10/05 12:47:48;;;;;;;190.25;180.23;;;20.80;99.90;;;;;;5010166;28;20049;-72
2023/10/05 12:50:15;;;;;;;169.98;160.95;;;20.70;99.90;;;;;;5010196;28;20237;-72
2023/10/05 12:52:41;;;;;;;162.32;154.02;;;20.50;99.90;;;;;;5012905;28;20037;-72
2023/10/05 12:55:08;;;;;;;157.55;149.13;;;20.40;99.90;;;;;;5015302;28;20025;-72
2023/10/05 12:57:36;;;;;;;177.70;168.40;;;20.40;99.90;;;;;;5014890;28;20108;-72
2023/10/05 13:00:19;;;;;;;163.15;154.85;;;20.70;99.90;;;;;;5015832;28;20038;-72